sensor_id;sensor_type;location;lat;lon;timestamp;temperature;humidity
12688;DHT22;6408;59.388;17.798;2022-12-07T00:01:45;-4.60;99.90
12688;DHT22;6408;59.388;17.798;2022-12-07T00:04:15;-4.60;99.90
12688;DHT22;6408;59.388;17.798;2022-12-07T00:06:47;-4.50;99.90
12688;DHT22;6408;59.388;17.798;2022-12-07T00:09:18;-4.50;99.90
12688;DHT22;6408;59.388;17.798;2022-12-07T00:11:49;-4.50;99.90
12688;DHT22;6408;59.388;17.798;2022-12-07T00:14:23;-4.40;99.90
12688;DHT22;6408;59.388;17.798;2022-12-07T00:16:57;-4.40;99.90
12688;DHT22;6408;59.388;17.798;2022-12-07T00:19:29;-4.40;99.90
12688;DHT22;6408;59.388;17.798;2022-12-07T00:22:04;-4.40;99.90
12688;DHT22;6408;59.388;17.798;2022-12-07T00:24:41;-4.40;99.90
12688;DHT22;6408;59.388;17.798;2022-12-07T00:27:12;-4.30;99.90
12688;DHT22;6408;59.388;17.798;2022-12-07T00:29:47;-4.20;99.90
12688;DHT22;6408;59.388;17.798;2022-12-07T00:32:21;-4.10;99.90
12688;DHT22;6408;59.388;17.798;2022-12-07T00:35:03;-4.20;99.90
12688;DHT22;6408;59.388;17.798;2022-12-07T00:37:34;-4.40;99.90
12688;DHT22;6408;59.388;17.798;2022-12-07T00:40:03;-4.50;99.90
12688;DHT22;6408;59.388;17.798;2022-12-07T00:42:31;-4.50;99.90
12688;DHT22;6408;59.388;17.798;2022-12-07T00:45:00;-4.50;99.90
12688;DHT22;6408;59.388;17.798;2022-12-07T00:47:37;-4.40;99.90
12688;DHT22;6408;59.388;17.798;2022-12-07T00:50:05;-4.40;99.90
12688;DHT22;6408;59.388;17.798;2022-12-07T00:52:46;-4.40;99.90
12688;DHT22;6408;59.388;17.798;2022-12-07T00:55:16;-4.40;99.90
12688;DHT22;6408;59.388;17.798;2022-12-07T00:57:48;-4.30;99.90
12688;DHT22;6408;59.388;17.798;2022-12-07T01:00:21;-4.40;99.90
12688;DHT22;6408;59.388;17.798;2022-12-07T01:02:51;-4.40;99.90
12688;DHT22;6408;59.388;17.798;2022-12-07T01:05:21;-4.30;99.90
12688;DHT22;6408;59.388;17.798;2022-12-07T01:08:09;-4.30;99.90
12688;DHT22;6408;59.388;17.798;2022-12-07T01:11:04;-4.40;99.90
12688;DHT22;6408;59.388;17.798;2022-12-07T01:33:26;-4.40;99.90
12688;DHT22;6408;59.388;17.798;2022-12-07T01:36:17;-4.50;99.90
12688;DHT22;6408;59.388;17.798;2022-12-07T01:39:04;-4.60;99.90
12688;DHT22;6408;59.388;17.798;2022-12-07T01:55:34;-4.30;99.90
12688;DHT22;6408;59.388;17.798;2022-12-07T01:58:44;-4.30;99.90
12688;DHT22;6408;59.388;17.798;2022-12-07T02:08:18;-4.50;99.90
12688;DHT22;6408;59.388;17.798;2022-12-07T02:10:54;-4.50;99.90
12688;DHT22;6408;59.388;17.798;2022-12-07T02:13:25;-4.50;99.90
12688;DHT22;6408;59.388;17.798;2022-12-07T02:16:08;-4.50;99.90
12688;DHT22;6408;59.388;17.798;2022-12-07T02:18:59;-4.60;99.90
12688;DHT22;6408;59.388;17.798;2022-12-07T02:21:43;-4.60;99.90
12688;DHT22;6408;59.388;17.798;2022-12-07T02:24:29;-4.60;99.90
12688;DHT22;6408;59.388;17.798;2022-12-07T02:27:24;-4.60;99.90
12688;DHT22;6408;59.388;17.798;2022-12-07T02:33:33;-4.70;99.90
12688;DHT22;6408;59.388;17.798;2022-12-07T02:36:47;-4.60;99.90
12688;DHT22;6408;59.388;17.798;2022-12-07T02:39:57;-4.40;99.90
12688;DHT22;6408;59.388;17.798;2022-12-07T02:42:32;-4.50;99.90
12688;DHT22;6408;59.388;17.798;2022-12-07T02:45:10;-4.70;99.90
12688;DHT22;6408;59.388;17.798;2022-12-07T02:47:58;-4.70;99.90
12688;DHT22;6408;59.388;17.798;2022-12-07T02:50:47;-4.70;99.90
12688;DHT22;6408;59.388;17.798;2022-12-07T02:53:37;-4.60;99.90
12688;DHT22;6408;59.388;17.798;2022-12-07T02:56:35;-4.60;99.90
12688;DHT22;6408;59.388;17.798;2022-12-07T02:59:46;-4.60;99.90
12688;DHT22;6408;59.388;17.798;2022-12-07T03:06:06;-4.70;99.90
12688;DHT22;6408;59.388;17.798;2022-12-07T03:08:47;-4.70;99.90
12688;DHT22;6408;59.388;17.798;2022-12-07T03:11:22;-4.70;99.90
12688;DHT22;6408;59.388;17.798;2022-12-07T03:14:21;-4.80;99.90
12688;DHT22;6408;59.388;17.798;2022-12-07T03:20:51;-4.50;99.90
12688;DHT22;6408;59.388;17.798;2022-12-07T03:27:13;-4.60;99.90
12688;DHT22;6408;59.388;17.798;2022-12-07T03:33:29;-4.80;99.90
12688;DHT22;6408;59.388;17.798;2022-12-07T03:39:57;-4.60;99.90
12688;DHT22;6408;59.388;17.798;2022-12-07T03:43:13;-4.40;99.90
12688;DHT22;6408;59.388;17.798;2022-12-07T03:45:56;-4.30;99.90
12688;DHT22;6408;59.388;17.798;2022-12-07T03:48:41;-4.40;99.90
12688;DHT22;6408;59.388;17.798;2022-12-07T03:51:55;-4.50;99.90
12688;DHT22;6408;59.388;17.798;2022-12-07T03:54:39;-4.50;99.90
12688;DHT22;6408;59.388;17.798;2022-12-07T03:58:06;-4.50;99.90
12688;DHT22;6408;59.388;17.798;2022-12-07T04:01:41;-4.50;99.90
12688;DHT22;6408;59.388;17.798;2022-12-07T04:03:59;-4.50;99.90
12688;DHT22;6408;59.388;17.798;2022-12-07T04:06:28;-4.50;99.90
12688;DHT22;6408;59.388;17.798;2022-12-07T04:09:12;-4.60;99.90
12688;DHT22;6408;59.388;17.798;2022-12-07T04:11:44;-4.50;99.90
12688;DHT22;6408;59.388;17.798;2022-12-07T04:14:26;-4.40;99.90
12688;DHT22;6408;59.388;17.798;2022-12-07T04:29:50;-4.50;99.90
12688;DHT22;6408;59.388;17.798;2022-12-07T04:35:34;-4.20;99.90
12688;DHT22;6408;59.388;17.798;2022-12-07T04:42:11;-4.20;99.90
12688;DHT22;6408;59.388;17.798;2022-12-07T04:45:06;-4.30;99.90
12688;DHT22;6408;59.388;17.798;2022-12-07T04:48:03;-4.30;99.90
12688;DHT22;6408;59.388;17.798;2022-12-07T05:00:49;-4.10;99.90
12688;DHT22;6408;59.388;17.798;2022-12-07T05:04:02;-4.20;99.90
12688;DHT22;6408;59.388;17.798;2022-12-07T05:10:05;-4.20;99.90
12688;DHT22;6408;59.388;17.798;2022-12-07T05:16:56;-4.20;99.90
12688;DHT22;6408;59.388;17.798;2022-12-07T05:19:47;-4.30;99.90
12688;DHT22;6408;59.388;17.798;2022-12-07T05:22:50;-4.30;99.90
12688;DHT22;6408;59.388;17.798;2022-12-07T05:25:43;-4.30;99.90
12688;DHT22;6408;59.388;17.798;2022-12-07T05:44:20;-4.30;99.90
12688;DHT22;6408;59.388;17.798;2022-12-07T05:47:01;-4.50;99.90
12688;DHT22;6408;59.388;17.798;2022-12-07T06:00:28;-4.40;99.90
12688;DHT22;6408;59.388;17.798;2022-12-07T06:05:45;-4.40;99.90
12688;DHT22;6408;59.388;17.798;2022-12-07T06:11:54;-4.50;99.90
12688;DHT22;6408;59.388;17.798;2022-12-07T06:14:40;-4.60;99.90
12688;DHT22;6408;59.388;17.798;2022-12-07T06:17:29;-4.50;99.90
12688;DHT22;6408;59.388;17.798;2022-12-07T06:20:00;-4.40;99.90
12688;DHT22;6408;59.388;17.798;2022-12-07T06:29:24;-4.60;99.90
12688;DHT22;6408;59.388;17.798;2022-12-07T06:31:53;-4.60;99.90
12688;DHT22;6408;59.388;17.798;2022-12-07T06:34:46;-4.50;99.90
12688;DHT22;6408;59.388;17.798;2022-12-07T06:41:18;-4.60;99.90
12688;DHT22;6408;59.388;17.798;2022-12-07T06:43:46;-4.60;99.90
12688;DHT22;6408;59.388;17.798;2022-12-07T06:46:31;-4.60;99.90
12688;DHT22;6408;59.388;17.798;2022-12-07T06:48:58;-4.60;99.90
12688;DHT22;6408;59.388;17.798;2022-12-07T06:51:31;-4.50;99.90
12688;DHT22;6408;59.388;17.798;2022-12-07T06:57:02;-4.60;99.90
12688;DHT22;6408;59.388;17.798;2022-12-07T07:00:21;-4.60;99.90
12688;DHT22;6408;59.388;17.798;2022-12-07T07:02:54;-4.60;99.90
12688;DHT22;6408;59.388;17.798;2022-12-07T07:26:10;-4.40;99.90
12688;DHT22;6408;59.388;17.798;2022-12-07T07:38:40;-4.50;99.90
12688;DHT22;6408;59.388;17.798;2022-12-07T07:41:31;-4.40;99.90
12688;DHT22;6408;59.388;17.798;2022-12-07T07:47:10;-4.40;99.90
12688;DHT22;6408;59.388;17.798;2022-12-07T07:53:19;-4.30;99.90
12688;DHT22;6408;59.388;17.798;2022-12-07T07:56:07;-4.30;99.90
12688;DHT22;6408;59.388;17.798;2022-12-07T07:58:55;-4.30;99.90
12688;DHT22;6408;59.388;17.798;2022-12-07T08:02:11;-4.30;99.90
12688;DHT22;6408;59.388;17.798;2022-12-07T08:08:10;-4.20;99.90
12688;DHT22;6408;59.388;17.798;2022-12-07T08:10:41;-4.20;99.90
12688;DHT22;6408;59.388;17.798;2022-12-07T08:30:52;-4.10;99.90
12688;DHT22;6408;59.388;17.798;2022-12-07T08:33:28;-4.20;99.90
12688;DHT22;6408;59.388;17.798;2022-12-07T08:36:17;-4.20;99.90
12688;DHT22;6408;59.388;17.798;2022-12-07T08:45:07;-4.20;99.90
12688;DHT22;6408;59.388;17.798;2022-12-07T08:48:29;-4.30;99.90
12688;DHT22;6408;59.388;17.798;2022-12-07T08:51:09;-4.30;99.90
12688;DHT22;6408;59.388;17.798;2022-12-07T08:54:32;-4.30;99.90
12688;DHT22;6408;59.388;17.798;2022-12-07T08:58:13;-4.30;99.90
12688;DHT22;6408;59.388;17.798;2022-12-07T09:01:21;-4.20;99.90
12688;DHT22;6408;59.388;17.798;2022-12-07T09:04:15;-4.30;99.90
12688;DHT22;6408;59.388;17.798;2022-12-07T09:06:49;-4.30;99.90
12688;DHT22;6408;59.388;17.798;2022-12-07T09:12:33;-4.40;99.90
12688;DHT22;6408;59.388;17.798;2022-12-07T09:15:32;-4.40;99.90
12688;DHT22;6408;59.388;17.798;2022-12-07T09:18:19;-4.30;99.90
12688;DHT22;6408;59.388;17.798;2022-12-07T09:20:48;-4.20;99.90
12688;DHT22;6408;59.388;17.798;2022-12-07T09:23:22;-4.10;99.90
12688;DHT22;6408;59.388;17.798;2022-12-07T09:25:59;-4.10;99.90
12688;DHT22;6408;59.388;17.798;2022-12-07T09:28:30;-4.10;99.90
12688;DHT22;6408;59.388;17.798;2022-12-07T09:31:00;-4.10;99.90
12688;DHT22;6408;59.388;17.798;2022-12-07T09:33:33;-4.10;99.90
12688;DHT22;6408;59.388;17.798;2022-12-07T09:36:06;-4.10;99.90
12688;DHT22;6408;59.388;17.798;2022-12-07T09:38:41;-4.10;99.90
12688;DHT22;6408;59.388;17.798;2022-12-07T09:41:14;-4.10;99.90
12688;DHT22;6408;59.388;17.798;2022-12-07T09:43:53;-4.00;99.90
12688;DHT22;6408;59.388;17.798;2022-12-07T09:47:20;-3.90;99.90
12688;DHT22;6408;59.388;17.798;2022-12-07T09:50:14;-3.90;99.90
12688;DHT22;6408;59.388;17.798;2022-12-07T09:53:08;-3.80;99.90
12688;DHT22;6408;59.388;17.798;2022-12-07T09:55:44;-3.80;99.90
12688;DHT22;6408;59.388;17.798;2022-12-07T09:58:25;-3.80;99.90
12688;DHT22;6408;59.388;17.798;2022-12-07T10:01:00;-3.70;99.90
12688;DHT22;6408;59.388;17.798;2022-12-07T10:03:28;-3.70;99.90
12688;DHT22;6408;59.388;17.798;2022-12-07T10:05:56;-3.70;99.90
12688;DHT22;6408;59.388;17.798;2022-12-07T10:08:35;-3.70;99.90
12688;DHT22;6408;59.388;17.798;2022-12-07T10:11:06;-3.70;99.90
12688;DHT22;6408;59.388;17.798;2022-12-07T10:13:39;-3.70;99.90
12688;DHT22;6408;59.388;17.798;2022-12-07T10:19:42;-3.60;99.90
12688;DHT22;6408;59.388;17.798;2022-12-07T10:25:41;-3.60;99.90
12688;DHT22;6408;59.388;17.798;2022-12-07T10:28:23;-3.50;99.90
12688;DHT22;6408;59.388;17.798;2022-12-07T10:34:51;-3.50;99.90
12688;DHT22;6408;59.388;17.798;2022-12-07T10:44:44;-3.50;99.90
12688;DHT22;6408;59.388;17.798;2022-12-07T10:57:39;-3.40;99.90
12688;DHT22;6408;59.388;17.798;2022-12-07T11:01:10;-3.30;99.90
12688;DHT22;6408;59.388;17.798;2022-12-07T11:04:35;-3.20;99.90
12688;DHT22;6408;59.388;17.798;2022-12-07T11:07:38;-3.30;99.90
12688;DHT22;6408;59.388;17.798;2022-12-07T11:10:18;-3.30;99.90
12688;DHT22;6408;59.388;17.798;2022-12-07T11:13:00;-3.30;99.90
12688;DHT22;6408;59.388;17.798;2022-12-07T11:25:41;-3.20;99.90
12688;DHT22;6408;59.388;17.798;2022-12-07T11:28:29;-3.20;99.90
12688;DHT22;6408;59.388;17.798;2022-12-07T11:38:20;-3.10;99.90
12688;DHT22;6408;59.388;17.798;2022-12-07T11:41:09;-3.10;99.90
12688;DHT22;6408;59.388;17.798;2022-12-07T11:44:14;-3.10;99.90
12688;DHT22;6408;59.388;17.798;2022-12-07T11:50:25;-3.10;99.90
12688;DHT22;6408;59.388;17.798;2022-12-07T11:56:23;-3.10;99.90
12688;DHT22;6408;59.388;17.798;2022-12-07T11:59:16;-3.10;99.90
12688;DHT22;6408;59.388;17.798;2022-12-07T12:01:52;-3.10;99.90
12688;DHT22;6408;59.388;17.798;2022-12-07T12:04:45;-3.00;99.90
12688;DHT22;6408;59.388;17.798;2022-12-07T12:07:31;-3.10;99.90
12688;DHT22;6408;59.388;17.798;2022-12-07T12:10:13;-3.10;99.90
12688;DHT22;6408;59.388;17.798;2022-12-07T12:24:02;-2.90;99.90
12688;DHT22;6408;59.388;17.798;2022-12-07T12:26:50;-3.00;99.90
12688;DHT22;6408;59.388;17.798;2022-12-07T12:31:06;-2.90;99.90
12688;DHT22;6408;59.388;17.798;2022-12-07T12:33:05;-2.90;99.90
12688;DHT22;6408;59.388;17.798;2022-12-07T12:35:44;-3.00;99.90
12688;DHT22;6408;59.388;17.798;2022-12-07T12:38:31;-3.00;99.90
12688;DHT22;6408;59.388;17.798;2022-12-07T12:41:02;-3.00;99.90
12688;DHT22;6408;59.388;17.798;2022-12-07T12:43:41;-3.00;99.90
12688;DHT22;6408;59.388;17.798;2022-12-07T12:46:51;-3.00;99.90
12688;DHT22;6408;59.388;17.798;2022-12-07T13:02:32;-3.10;99.90
12688;DHT22;6408;59.388;17.798;2022-12-07T13:05:19;-3.10;99.90
12688;DHT22;6408;59.388;17.798;2022-12-07T13:08:00;-3.20;99.90
12688;DHT22;6408;59.388;17.798;2022-12-07T13:10:39;-3.20;99.90
12688;DHT22;6408;59.388;17.798;2022-12-07T13:13:29;-3.20;99.90
12688;DHT22;6408;59.388;17.798;2022-12-07T13:20:02;-3.30;99.90
12688;DHT22;6408;59.388;17.798;2022-12-07T13:22:59;-3.30;99.90
12688;DHT22;6408;59.388;17.798;2022-12-07T13:25:45;-3.30;99.90
12688;DHT22;6408;59.388;17.798;2022-12-07T13:28:46;-3.30;99.90
12688;DHT22;6408;59.388;17.798;2022-12-07T13:31:35;-3.30;99.90
12688;DHT22;6408;59.388;17.798;2022-12-07T13:34:34;-3.30;99.90
12688;DHT22;6408;59.388;17.798;2022-12-07T13:37:15;-3.40;99.90
12688;DHT22;6408;59.388;17.798;2022-12-07T13:39:50;-3.50;99.90
12688;DHT22;6408;59.388;17.798;2022-12-07T13:42:29;-3.40;99.90
12688;DHT22;6408;59.388;17.798;2022-12-07T13:45:21;-3.40;99.90
12688;DHT22;6408;59.388;17.798;2022-12-07T13:48:14;-3.50;99.90
12688;DHT22;6408;59.388;17.798;2022-12-07T13:50:54;-3.50;99.90
12688;DHT22;6408;59.388;17.798;2022-12-07T13:53:53;-3.60;99.90
12688;DHT22;6408;59.388;17.798;2022-12-07T13:56:36;-3.60;99.90
12688;DHT22;6408;59.388;17.798;2022-12-07T13:59:07;-3.50;99.90
12688;DHT22;6408;59.388;17.798;2022-12-07T14:01:39;-3.60;99.90
12688;DHT22;6408;59.388;17.798;2022-12-07T14:04:31;-3.60;99.90
12688;DHT22;6408;59.388;17.798;2022-12-07T14:07:15;-3.60;99.90
12688;DHT22;6408;59.388;17.798;2022-12-07T14:10:03;-3.60;99.90
12688;DHT22;6408;59.388;17.798;2022-12-07T14:13:32;-3.60;99.90
12688;DHT22;6408;59.388;17.798;2022-12-07T14:19:50;-3.60;99.90
12688;DHT22;6408;59.388;17.798;2022-12-07T14:22:36;-3.70;99.90
12688;DHT22;6408;59.388;17.798;2022-12-07T14:25:27;-3.80;99.90
12688;DHT22;6408;59.388;17.798;2022-12-07T14:28:26;-3.80;99.90
12688;DHT22;6408;59.388;17.798;2022-12-07T14:31:26;-3.80;99.90
12688;DHT22;6408;59.388;17.798;2022-12-07T14:34:03;-3.90;99.90
12688;DHT22;6408;59.388;17.798;2022-12-07T14:36:47;-3.90;99.90
12688;DHT22;6408;59.388;17.798;2022-12-07T14:39:35;-3.90;99.90
12688;DHT22;6408;59.388;17.798;2022-12-07T14:42:24;-4.00;99.90
12688;DHT22;6408;59.388;17.798;2022-12-07T14:44:52;-4.00;99.90
12688;DHT22;6408;59.388;17.798;2022-12-07T14:47:33;-3.90;99.90
12688;DHT22;6408;59.388;17.798;2022-12-07T14:50:12;-4.00;99.90
12688;DHT22;6408;59.388;17.798;2022-12-07T14:52:43;-4.00;99.90
12688;DHT22;6408;59.388;17.798;2022-12-07T15:05:16;-4.10;99.90
12688;DHT22;6408;59.388;17.798;2022-12-07T15:11:05;-4.20;99.90
12688;DHT22;6408;59.388;17.798;2022-12-07T15:14:17;-4.20;99.90
12688;DHT22;6408;59.388;17.798;2022-12-07T15:17:31;-4.20;99.90
12688;DHT22;6408;59.388;17.798;2022-12-07T15:34:39;-4.30;99.90
12688;DHT22;6408;59.388;17.798;2022-12-07T15:54:08;-4.40;99.90
12688;DHT22;6408;59.388;17.798;2022-12-07T15:56:46;-4.50;99.90
12688;DHT22;6408;59.388;17.798;2022-12-07T15:59:37;-4.50;99.90
12688;DHT22;6408;59.388;17.798;2022-12-07T16:02:24;-4.50;99.90
12688;DHT22;6408;59.388;17.798;2022-12-07T16:05:07;-4.50;99.90
12688;DHT22;6408;59.388;17.798;2022-12-07T16:14:53;-4.60;99.90
12688;DHT22;6408;59.388;17.798;2022-12-07T16:24:34;-4.60;99.90
12688;DHT22;6408;59.388;17.798;2022-12-07T16:27:26;-4.70;99.90
12688;DHT22;6408;59.388;17.798;2022-12-07T16:30:15;-4.70;99.90
12688;DHT22;6408;59.388;17.798;2022-12-07T16:32:59;-4.70;99.90
12688;DHT22;6408;59.388;17.798;2022-12-07T16:36:00;-4.60;99.90
12688;DHT22;6408;59.388;17.798;2022-12-07T16:45:04;-4.50;99.90
12688;DHT22;6408;59.388;17.798;2022-12-07T16:47:41;-4.50;99.90
12688;DHT22;6408;59.388;17.798;2022-12-07T16:54:00;-4.60;99.90
12688;DHT22;6408;59.388;17.798;2022-12-07T16:56:35;-4.60;99.90
12688;DHT22;6408;59.388;17.798;2022-12-07T16:59:18;-4.60;99.90
12688;DHT22;6408;59.388;17.798;2022-12-07T19:28:16;-5.20;99.90
